LFSG/EPL METAR and TAF weather

Enter ICAO airport designator
Station Type Date Time Source
LFSG METAR 2021/09/28 04:00 UTC NOAA

LFSG 280400Z AUTO 00000KT 9999 OVC003 11/10 Q1025


Station Type Date Time Source
LFSG Decoded METAR 2021/09/28 04:00 UTC NOAA

Station name not available
Sep 28, 2021 - 12:00 AM EDT / 2021.09.28 0400 UTC
Wind: Calm:0
Visibility: greater than 7 mile(s):0
Sky conditions: overcast
Temperature: 51 F (11 C)
Dew Point: 50 F (10 C)
Relative Humidity: 93%
Pressure (altimeter): 30.27 in. Hg (1025 hPa)
ob: LFSG 280400Z AUTO 00000KT 9999 OVC003 11/10 Q1025
cycle: 4

Station Type Date Time Source
LFSG TAF UTC NOAA

Error!

Example: see airport list